sensor_id;sensor_type;location;lat;lon;timestamp;pressure;altitude;pressure_sealevel;temperature;humidity
64521;BME280;50896;46.714;17.322;2023-04-21T00:00:50;100416.69;;;7.94;100.00
64521;BME280;50896;46.714;17.322;2023-04-21T00:03:18;100424.44;;;8.06;100.00
64521;BME280;50896;46.714;17.322;2023-04-21T00:05:48;100422.47;;;8.08;100.00
64521;BME280;50896;46.714;17.322;2023-04-21T00:08:17;100424.69;;;8.12;100.00
64521;BME280;50896;46.714;17.322;2023-04-21T00:10:44;100418.25;;;8.15;100.00
64521;BME280;50896;46.714;17.322;2023-04-21T00:13:13;100411.09;;;8.25;100.00
64521;BME280;50896;46.714;17.322;2023-04-21T00:15:40;100416.50;;;8.33;100.00
64521;BME280;50896;46.714;17.322;2023-04-21T00:18:07;100407.81;;;8.41;100.00
64521;BME280;50896;46.714;17.322;2023-04-21T00:20:35;100414.91;;;8.50;100.00
64521;BME280;50896;46.714;17.322;2023-04-21T00:23:02;100415.66;;;8.61;100.00
64521;BME280;50896;46.714;17.322;2023-04-21T00:25:29;100410.84;;;8.74;100.00
64521;BME280;50896;46.714;17.322;2023-04-21T00:27:56;100407.97;;;8.85;100.00
64521;BME280;50896;46.714;17.322;2023-04-21T00:30:23;100408.28;;;9.00;100.00
64521;BME280;50896;46.714;17.322;2023-04-21T00:32:49;100402.19;;;9.08;100.00
64521;BME280;50896;46.714;17.322;2023-04-21T00:35:16;100404.47;;;9.21;100.00
64521;BME280;50896;46.714;17.322;2023-04-21T00:37:43;100405.22;;;9.31;100.00
64521;BME280;50896;46.714;17.322;2023-04-21T00:40:10;100415.03;;;9.39;100.00
64521;BME280;50896;46.714;17.322;2023-04-21T00:42:39;100403.59;;;9.38;100.00
64521;BME280;50896;46.714;17.322;2023-04-21T00:45:06;100414.81;;;9.50;100.00
64521;BME280;50896;46.714;17.322;2023-04-21T00:47:33;100413.03;;;9.59;100.00
64521;BME280;50896;46.714;17.322;2023-04-21T00:50:00;100389.97;;;9.60;100.00
64521;BME280;50896;46.714;17.322;2023-04-21T00:52:28;100409.81;;;9.73;100.00
64521;BME280;50896;46.714;17.322;2023-04-21T00:54:55;100402.69;;;9.74;100.00
64521;BME280;50896;46.714;17.322;2023-04-21T00:57:22;100410.06;;;9.88;100.00
64521;BME280;50896;46.714;17.322;2023-04-21T00:59:49;100396.25;;;9.85;100.00
64521;BME280;50896;46.714;17.322;2023-04-21T01:02:17;100410.44;;;10.02;100.00
64521;BME280;50896;46.714;17.322;2023-04-21T01:04:46;100410.19;;;10.13;100.00
64521;BME280;50896;46.714;17.322;2023-04-21T01:07:13;100410.31;;;10.12;100.00
64521;BME280;50896;46.714;17.322;2023-04-21T01:09:40;100411.50;;;10.09;100.00
64521;BME280;50896;46.714;17.322;2023-04-21T01:12:08;100411.34;;;10.11;100.00
64521;BME280;50896;46.714;17.322;2023-04-21T01:14:37;100409.50;;;10.11;100.00
64521;BME280;50896;46.714;17.322;2023-04-21T01:17:04;100401.03;;;10.07;100.00
64521;BME280;50896;46.714;17.322;2023-04-21T01:19:34;100406.03;;;10.11;100.00
64521;BME280;50896;46.714;17.322;2023-04-21T01:22:02;100402.69;;;10.08;100.00
64521;BME280;50896;46.714;17.322;2023-04-21T01:24:45;100392.25;;;10.15;100.00
64521;BME280;50896;46.714;17.322;2023-04-21T01:27:18;100400.38;;;10.14;100.00
64521;BME280;50896;46.714;17.322;2023-04-21T01:29:48;100403.22;;;10.12;100.00
64521;BME280;50896;46.714;17.322;2023-04-21T01:32:17;100392.59;;;10.12;100.00
64521;BME280;50896;46.714;17.322;2023-04-21T01:34:45;100380.59;;;10.08;100.00
64521;BME280;50896;46.714;17.322;2023-04-21T01:37:16;100391.44;;;10.15;100.00
64521;BME280;50896;46.714;17.322;2023-04-21T01:39:47;100390.78;;;10.21;100.00
64521;BME280;50896;46.714;17.322;2023-04-21T01:42:14;100387.31;;;10.20;100.00
64521;BME280;50896;46.714;17.322;2023-04-21T01:44:41;100395.59;;;10.25;100.00
64521;BME280;50896;46.714;17.322;2023-04-21T01:47:08;100393.13;;;10.32;100.00
64521;BME280;50896;46.714;17.322;2023-04-21T01:49:34;100393.47;;;10.29;100.00
64521;BME280;50896;46.714;17.322;2023-04-21T01:52:01;100385.66;;;10.27;100.00
64521;BME280;50896;46.714;17.322;2023-04-21T01:54:28;100389.63;;;10.23;100.00
64521;BME280;50896;46.714;17.322;2023-04-21T01:56:55;100388.81;;;10.23;100.00
64521;BME280;50896;46.714;17.322;2023-04-21T01:59:23;100393.28;;;10.22;100.00
64521;BME280;50896;46.714;17.322;2023-04-21T02:01:50;100398.91;;;10.19;100.00
64521;BME280;50896;46.714;17.322;2023-04-21T02:04:17;100395.59;;;10.17;100.00
64521;BME280;50896;46.714;17.322;2023-04-21T02:06:44;100392.59;;;10.12;100.00
64521;BME280;50896;46.714;17.322;2023-04-21T02:09:11;100395.25;;;10.12;100.00
64521;BME280;50896;46.714;17.322;2023-04-21T02:11:38;100388.94;;;10.13;100.00
64521;BME280;50896;46.714;17.322;2023-04-21T02:14:05;100380.28;;;10.11;100.00
64521;BME280;50896;46.714;17.322;2023-04-21T02:16:32;100388.41;;;10.09;100.00
64521;BME280;50896;46.714;17.322;2023-04-21T02:18:59;100376.44;;;10.05;100.00
64521;BME280;50896;46.714;17.322;2023-04-21T02:21:26;100392.06;;;10.08;100.00
64521;BME280;50896;46.714;17.322;2023-04-21T02:23:54;100383.06;;;10.01;100.00
64521;BME280;50896;46.714;17.322;2023-04-21T02:26:21;100385.72;;;10.01;100.00
64521;BME280;50896;46.714;17.322;2023-04-21T02:28:47;100394.06;;;10.06;100.00
64521;BME280;50896;46.714;17.322;2023-04-21T02:31:16;100395.03;;;10.05;100.00
64521;BME280;50896;46.714;17.322;2023-04-21T02:33:44;100389.88;;;10.04;100.00
64521;BME280;50896;46.714;17.322;2023-04-21T02:36:11;100393.53;;;10.03;100.00
64521;BME280;50896;46.714;17.322;2023-04-21T02:38:38;100386.88;;;9.99;100.00
64521;BME280;50896;46.714;17.322;2023-04-21T02:41:08;100387.69;;;9.91;100.00
64521;BME280;50896;46.714;17.322;2023-04-21T02:43:35;100392.47;;;9.87;100.00
64521;BME280;50896;46.714;17.322;2023-04-21T02:46:06;100390.13;;;9.84;100.00
64521;BME280;50896;46.714;17.322;2023-04-21T02:48:34;100387.47;;;9.84;100.00
64521;BME280;50896;46.714;17.322;2023-04-21T02:51:01;100382.31;;;9.83;100.00
64521;BME280;50896;46.714;17.322;2023-04-21T02:53:29;100395.44;;;9.84;100.00
64521;BME280;50896;46.714;17.322;2023-04-21T02:55:55;100385.78;;;9.83;100.00
64521;BME280;50896;46.714;17.322;2023-04-21T02:58:22;100387.16;;;9.87;100.00
64521;BME280;50896;46.714;17.322;2023-04-21T03:00:49;100381.00;;;9.87;100.00
64521;BME280;50896;46.714;17.322;2023-04-21T03:03:17;100382.53;;;9.89;100.00
64521;BME280;50896;46.714;17.322;2023-04-21T03:05:44;100384.16;;;9.90;100.00
64521;BME280;50896;46.714;17.322;2023-04-21T03:08:11;100379.03;;;9.89;100.00
64521;BME280;50896;46.714;17.322;2023-04-21T03:10:38;100386.81;;;9.90;100.00
64521;BME280;50896;46.714;17.322;2023-04-21T03:13:05;100379.50;;;9.84;100.00
64521;BME280;50896;46.714;17.322;2023-04-21T03:15:32;100390.16;;;9.92;100.00
64521;BME280;50896;46.714;17.322;2023-04-21T03:18:00;100389.31;;;9.92;100.00
64521;BME280;50896;46.714;17.322;2023-04-21T03:20:27;100386.81;;;9.90;100.00
64521;BME280;50896;46.714;17.322;2023-04-21T03:22:54;100388.66;;;9.90;100.00
64521;BME280;50896;46.714;17.322;2023-04-21T03:25:21;100398.63;;;9.88;100.00
64521;BME280;50896;46.714;17.322;2023-04-21T03:27:49;100393.44;;;9.86;100.00
64521;BME280;50896;46.714;17.322;2023-04-21T03:30:16;100394.13;;;9.88;100.00
64521;BME280;50896;46.714;17.322;2023-04-21T03:32:43;100404.06;;;9.86;100.00
64521;BME280;50896;46.714;17.322;2023-04-21T03:35:10;100397.94;;;9.86;100.00
64521;BME280;50896;46.714;17.322;2023-04-21T03:37:37;100392.63;;;9.86;100.00
64521;BME280;50896;46.714;17.322;2023-04-21T03:40:05;100396.94;;;9.87;100.00
64521;BME280;50896;46.714;17.322;2023-04-21T03:42:32;100390.94;;;9.85;100.00
64521;BME280;50896;46.714;17.322;2023-04-21T03:45:04;100389.41;;;9.74;100.00
64521;BME280;50896;46.714;17.322;2023-04-21T03:47:33;100399.72;;;9.77;100.00
64521;BME280;50896;46.714;17.322;2023-04-21T03:50:01;100404.00;;;9.78;100.00
64521;BME280;50896;46.714;17.322;2023-04-21T03:52:28;100404.72;;;9.80;100.00
64521;BME280;50896;46.714;17.322;2023-04-21T03:54:55;100406.38;;;9.81;100.00
64521;BME280;50896;46.714;17.322;2023-04-21T03:57:22;100400.91;;;9.83;100.00
64521;BME280;50896;46.714;17.322;2023-04-21T03:59:49;100394.25;;;9.79;100.00
64521;BME280;50896;46.714;17.322;2023-04-21T04:02:15;100403.56;;;9.83;100.00
64521;BME280;50896;46.714;17.322;2023-04-21T04:04:42;100404.06;;;9.86;100.00
64521;BME280;50896;46.714;17.322;2023-04-21T04:07:09;100402.09;;;9.88;100.00
64521;BME280;50896;46.714;17.322;2023-04-21T04:09:44;100394.13;;;9.88;100.00
64521;BME280;50896;46.714;17.322;2023-04-21T04:12:14;100402.91;;;9.89;100.00
64521;BME280;50896;46.714;17.322;2023-04-21T04:14:41;100401.28;;;9.88;100.00
64521;BME280;50896;46.714;17.322;2023-04-21T04:17:08;100416.03;;;9.90;100.00
64521;BME280;50896;46.714;17.322;2023-04-21T04:19:35;100403.59;;;9.91;100.00
64521;BME280;50896;46.714;17.322;2023-04-21T04:22:02;100400.97;;;9.91;100.00
64521;BME280;50896;46.714;17.322;2023-04-21T04:24:31;100411.09;;;9.96;100.00
64521;BME280;50896;46.714;17.322;2023-04-21T04:26:59;100408.59;;;9.94;100.00
64521;BME280;50896;46.714;17.322;2023-04-21T04:29:28;100405.78;;;9.96;100.00
64521;BME280;50896;46.714;17.322;2023-04-21T04:31:54;100415.41;;;9.97;100.00
64521;BME280;50896;46.714;17.322;2023-04-21T04:34:23;100409.47;;;10.03;100.00
64521;BME280;50896;46.714;17.322;2023-04-21T04:36:50;100418.47;;;10.10;100.00
64521;BME280;50896;46.714;17.322;2023-04-21T04:39:17;100414.31;;;10.16;100.00
64521;BME280;50896;46.714;17.322;2023-04-21T04:41:44;100417.88;;;10.24;100.00
64521;BME280;50896;46.714;17.322;2023-04-21T04:44:12;100404.59;;;10.24;100.00
64521;BME280;50896;46.714;17.322;2023-04-21T04:46:41;100416.31;;;10.40;100.00
64521;BME280;50896;46.714;17.322;2023-04-21T04:49:08;100417.66;;;10.44;100.00
64521;BME280;50896;46.714;17.322;2023-04-21T04:51:35;100417.66;;;10.52;100.00
64521;BME280;50896;46.714;17.322;2023-04-21T04:54:02;100420.81;;;10.56;100.00
64521;BME280;50896;46.714;17.322;2023-04-21T04:56:29;100423.84;;;10.61;100.00
64521;BME280;50896;46.714;17.322;2023-04-21T04:58:56;100428.50;;;10.67;100.00
64521;BME280;50896;46.714;17.322;2023-04-21T05:01:23;100423.69;;;10.71;100.00
64521;BME280;50896;46.714;17.322;2023-04-21T05:03:56;100431.34;;;10.82;100.00
64521;BME280;50896;46.714;17.322;2023-04-21T05:06:23;100428.53;;;10.84;100.00
64521;BME280;50896;46.714;17.322;2023-04-21T05:08:50;100439.88;;;10.94;100.00
64521;BME280;50896;46.714;17.322;2023-04-21T05:11:16;100433.22;;;10.98;100.00
64521;BME280;50896;46.714;17.322;2023-04-21T05:13:43;100428.22;;;11.03;100.00
64521;BME280;50896;46.714;17.322;2023-04-21T05:16:10;100429.38;;;11.09;100.00
64521;BME280;50896;46.714;17.322;2023-04-21T05:18:37;100435.88;;;11.15;100.00
64521;BME280;50896;46.714;17.322;2023-04-21T05:21:04;100436.88;;;11.22;100.00
64521;BME280;50896;46.714;17.322;2023-04-21T05:23:31;100435.53;;;11.26;100.00
64521;BME280;50896;46.714;17.322;2023-04-21T05:25:58;100436.56;;;11.33;100.00
64521;BME280;50896;46.714;17.322;2023-04-21T05:28:29;100435.25;;;11.37;100.00
64521;BME280;50896;46.714;17.322;2023-04-21T05:30:57;100440.69;;;11.44;100.00
64521;BME280;50896;46.714;17.322;2023-04-21T05:33:24;100431.91;;;11.43;100.00
64521;BME280;50896;46.714;17.322;2023-04-21T05:35:52;100442.72;;;11.50;100.00
64521;BME280;50896;46.714;17.322;2023-04-21T05:38:19;100435.72;;;11.49;100.00
64521;BME280;50896;46.714;17.322;2023-04-21T05:40:54;100434.88;;;11.57;100.00
64521;BME280;50896;46.714;17.322;2023-04-21T05:43:21;100444.03;;;11.62;100.00
64521;BME280;50896;46.714;17.322;2023-04-21T05:45:48;100456.00;;;11.67;100.00
64521;BME280;50896;46.714;17.322;2023-04-21T05:48:15;100458.97;;;11.72;100.00
64521;BME280;50896;46.714;17.322;2023-04-21T05:50:42;100457.66;;;11.76;100.00
64521;BME280;50896;46.714;17.322;2023-04-21T05:53:09;100459.66;;;11.74;100.00
64521;BME280;50896;46.714;17.322;2023-04-21T05:55:36;100458.66;;;11.75;100.00
64521;BME280;50896;46.714;17.322;2023-04-21T05:58:03;100464.00;;;11.75;100.00
64521;BME280;50896;46.714;17.322;2023-04-21T06:00:30;100461.81;;;11.78;100.00
64521;BME280;50896;46.714;17.322;2023-04-21T06:02:57;100467.66;;;11.82;100.00
64521;BME280;50896;46.714;17.322;2023-04-21T06:05:25;100457.16;;;11.80;100.00
64521;BME280;50896;46.714;17.322;2023-04-21T06:07:51;100457.81;;;11.83;100.00
64521;BME280;50896;46.714;17.322;2023-04-21T06:10:19;100467.81;;;11.72;100.00
64521;BME280;50896;46.714;17.322;2023-04-21T06:12:46;100447.53;;;11.55;100.00
64521;BME280;50896;46.714;17.322;2023-04-21T06:15:13;100454.34;;;11.41;100.00
64521;BME280;50896;46.714;17.322;2023-04-21T06:17:40;100462.34;;;11.41;100.00
64521;BME280;50896;46.714;17.322;2023-04-21T06:20:07;100466.66;;;11.34;100.00
64521;BME280;50896;46.714;17.322;2023-04-21T06:22:34;100470.31;;;11.33;100.00
64521;BME280;50896;46.714;17.322;2023-04-21T06:25:01;100469.84;;;11.37;100.00
64521;BME280;50896;46.714;17.322;2023-04-21T06:27:27;100469.97;;;11.36;100.00
64521;BME280;50896;46.714;17.322;2023-04-21T06:29:54;100472.16;;;11.40;100.00
64521;BME280;50896;46.714;17.322;2023-04-21T06:32:21;100476.50;;;11.41;100.00
64521;BME280;50896;46.714;17.322;2023-04-21T06:34:48;100466.84;;;11.40;100.00
64521;BME280;50896;46.714;17.322;2023-04-21T06:37:15;100475.66;;;11.49;100.00
64521;BME280;50896;46.714;17.322;2023-04-21T06:39:43;100467.31;;;11.60;100.00
64521;BME280;50896;46.714;17.322;2023-04-21T06:42:10;100469.97;;;11.85;100.00
64521;BME280;50896;46.714;17.322;2023-04-21T06:44:43;100468.28;;;12.01;100.00
64521;BME280;50896;46.714;17.322;2023-04-21T06:47:09;100477.41;;;12.23;100.00
64521;BME280;50896;46.714;17.322;2023-04-21T06:49:36;100468.06;;;12.27;100.00
64521;BME280;50896;46.714;17.322;2023-04-21T06:52:03;100471.72;;;12.26;100.00
64521;BME280;50896;46.714;17.322;2023-04-21T06:54:31;100469.94;;;12.18;100.00
64521;BME280;50896;46.714;17.322;2023-04-21T06:56:58;100470.25;;;12.15;100.00
64521;BME280;50896;46.714;17.322;2023-04-21T06:59:24;100458.97;;;12.05;100.00
64521;BME280;50896;46.714;17.322;2023-04-21T07:01:51;100474.59;;;12.08;100.00
64521;BME280;50896;46.714;17.322;2023-04-21T07:04:18;100463.41;;;12.12;100.00
64521;BME280;50896;46.714;17.322;2023-04-21T07:06:45;100466.59;;;12.16;100.00
64521;BME280;50896;46.714;17.322;2023-04-21T07:09:12;100466.22;;;12.27;100.00
64521;BME280;50896;46.714;17.322;2023-04-21T07:11:39;100471.44;;;12.52;100.00
64521;BME280;50896;46.714;17.322;2023-04-21T07:14:06;100468.03;;;12.67;100.00
64521;BME280;50896;46.714;17.322;2023-04-21T07:16:32;100463.16;;;12.78;100.00
64521;BME280;50896;46.714;17.322;2023-04-21T07:18:59;100477.59;;;12.92;100.00
64521;BME280;50896;46.714;17.322;2023-04-21T07:21:27;100474.47;;;13.12;100.00
64521;BME280;50896;46.714;17.322;2023-04-21T07:23:56;100483.59;;;13.18;100.00
64521;BME280;50896;46.714;17.322;2023-04-21T07:26:23;100482.47;;;13.12;100.00
64521;BME280;50896;46.714;17.322;2023-04-21T07:28:50;100481.63;;;13.11;100.00
64521;BME280;50896;46.714;17.322;2023-04-21T07:31:18;100481.75;;;13.18;100.00
64521;BME280;50896;46.714;17.322;2023-04-21T07:33:45;100475.59;;;13.18;100.00
64521;BME280;50896;46.714;17.322;2023-04-21T07:36:12;100476.03;;;13.21;100.00
64521;BME280;50896;46.714;17.322;2023-04-21T07:38:39;100475.09;;;13.14;100.00
64521;BME280;50896;46.714;17.322;2023-04-21T07:41:10;100476.09;;;13.13;100.00
64521;BME280;50896;46.714;17.322;2023-04-21T07:43:38;100472.59;;;13.12;100.00
64521;BME280;50896;46.714;17.322;2023-04-21T07:46:05;100471.53;;;12.98;100.00
64521;BME280;50896;46.714;17.322;2023-04-21T07:48:32;100486.38;;;13.01;100.00
64521;BME280;50896;46.714;17.322;2023-04-21T07:50:59;100486.00;;;13.04;100.00
64521;BME280;50896;46.714;17.322;2023-04-21T07:53:26;100484.00;;;13.06;100.00
64521;BME280;50896;46.714;17.322;2023-04-21T07:55:53;100491.13;;;13.14;100.00
64521;BME280;50896;46.714;17.322;2023-04-21T07:58:20;100490.59;;;13.19;100.00
64521;BME280;50896;46.714;17.322;2023-04-21T08:00:48;100491.72;;;13.24;100.00
64521;BME280;50896;46.714;17.322;2023-04-21T08:03:15;100495.34;;;13.31;100.00
64521;BME280;50896;46.714;17.322;2023-04-21T08:05:42;100494.72;;;13.21;100.00
64521;BME280;50896;46.714;17.322;2023-04-21T08:08:09;100492.78;;;13.15;100.00
64521;BME280;50896;46.714;17.322;2023-04-21T08:10:36;100496.28;;;13.15;100.00
64521;BME280;50896;46.714;17.322;2023-04-21T08:13:03;100484.94;;;13.13;100.00
64521;BME280;50896;46.714;17.322;2023-04-21T08:15:33;100496.75;;;13.19;100.00
64521;BME280;50896;46.714;17.322;2023-04-21T08:18:00;100484.53;;;13.25;100.00
64521;BME280;50896;46.714;17.322;2023-04-21T08:20:27;100490.16;;;13.38;100.00
64521;BME280;50896;46.714;17.322;2023-04-21T08:22:54;100491.63;;;13.41;100.00
64521;BME280;50896;46.714;17.322;2023-04-21T08:25:21;100479.13;;;13.41;100.00
64521;BME280;50896;46.714;17.322;2023-04-21T08:27:49;100481.22;;;13.46;100.00
64521;BME280;50896;46.714;17.322;2023-04-21T08:30:17;100487.88;;;13.50;100.00
64521;BME280;50896;46.714;17.322;2023-04-21T08:32:44;100475.81;;;13.54;100.00
64521;BME280;50896;46.714;17.322;2023-04-21T08:35:11;100477.44;;;13.63;100.00
64521;BME280;50896;46.714;17.322;2023-04-21T08:37:38;100482.50;;;13.73;100.00
64521;BME280;50896;46.714;17.322;2023-04-21T08:40:05;100473.19;;;13.69;100.00
64521;BME280;50896;46.714;17.322;2023-04-21T08:42:33;100481.84;;;13.71;100.00
64521;BME280;50896;46.714;17.322;2023-04-21T08:45:00;100480.38;;;13.68;100.00
64521;BME280;50896;46.714;17.322;2023-04-21T08:47:27;100480.63;;;13.59;100.00
64521;BME280;50896;46.714;17.322;2023-04-21T08:49:55;100477.06;;;13.66;100.00
64521;BME280;50896;46.714;17.322;2023-04-21T08:52:22;100482.69;;;13.72;100.00
64521;BME280;50896;46.714;17.322;2023-04-21T08:54:49;100474.94;;;13.77;100.00
64521;BME280;50896;46.714;17.322;2023-04-21T08:57:18;100461.84;;;13.67;100.00
64521;BME280;50896;46.714;17.322;2023-04-21T08:59:45;100478.16;;;13.72;100.00
64521;BME280;50896;46.714;17.322;2023-04-21T09:02:17;100471.63;;;13.75;100.00
64521;BME280;50896;46.714;17.322;2023-04-21T09:04:47;100471.47;;;13.76;100.00
64521;BME280;50896;46.714;17.322;2023-04-21T09:07:33;100472.56;;;13.82;100.00
64521;BME280;50896;46.714;17.322;2023-04-21T09:10:00;100471.91;;;13.80;100.00
64521;BME280;50896;46.714;17.322;2023-04-21T09:12:28;100467.59;;;13.79;100.00
64521;BME280;50896;46.714;17.322;2023-04-21T09:14:55;100465.66;;;13.88;100.00
64521;BME280;50896;46.714;17.322;2023-04-21T09:17:28;100470.25;;;13.94;100.00
64521;BME280;50896;46.714;17.322;2023-04-21T09:20:12;100471.38;;;13.99;100.00
64521;BME280;50896;46.714;17.322;2023-04-21T09:22:39;100464.56;;;13.97;100.00
64521;BME280;50896;46.714;17.322;2023-04-21T09:25:07;100463.53;;;13.98;100.00
64521;BME280;50896;46.714;17.322;2023-04-21T09:27:36;100459.50;;;14.02;100.00
64521;BME280;50896;46.714;17.322;2023-04-21T09:30:05;100458.41;;;14.11;100.00
64521;BME280;50896;46.714;17.322;2023-04-21T09:32:37;100461.25;;;14.10;100.00
64521;BME280;50896;46.714;17.322;2023-04-21T09:35:10;100461.34;;;14.16;100.00
64521;BME280;50896;46.714;17.322;2023-04-21T09:37:38;100450.84;;;14.15;100.00
64521;BME280;50896;46.714;17.322;2023-04-21T09:40:05;100458.28;;;14.05;100.00
64521;BME280;50896;46.714;17.322;2023-04-21T09:42:33;100455.25;;;14.08;100.00
64521;BME280;50896;46.714;17.322;2023-04-21T09:45:06;100450.84;;;14.15;100.00
64521;BME280;50896;46.714;17.322;2023-04-21T09:47:57;100448.25;;;14.36;100.00
64521;BME280;50896;46.714;17.322;2023-04-21T09:50:25;100445.56;;;14.36;100.00
64521;BME280;50896;46.714;17.322;2023-04-21T09:53:15;100439.28;;;14.44;100.00
64521;BME280;50896;46.714;17.322;2023-04-21T09:55:46;100440.13;;;14.45;100.00
64521;BME280;50896;46.714;17.322;2023-04-21T09:58:15;100440.13;;;14.45;100.00
64521;BME280;50896;46.714;17.322;2023-04-21T10:00:46;100441.69;;;14.39;100.00
64521;BME280;50896;46.714;17.322;2023-04-21T10:03:13;100430.19;;;14.39;100.00
64521;BME280;50896;46.714;17.322;2023-04-21T10:05:42;100435.16;;;14.42;100.00
64521;BME280;50896;46.714;17.322;2023-04-21T10:08:10;100429.03;;;14.48;100.00
64521;BME280;50896;46.714;17.322;2023-04-21T10:10:37;100427.75;;;14.44;100.00
64521;BME280;50896;46.714;17.322;2023-04-21T10:13:05;100424.69;;;14.47;100.00
64521;BME280;50896;46.714;17.322;2023-04-21T10:15:40;100424.16;;;14.51;100.00
64521;BME280;50896;46.714;17.322;2023-04-21T10:21:01;100414.34;;;14.59;100.00
64521;BME280;50896;46.714;17.322;2023-04-21T10:23:42;100412.88;;;14.56;100.00
64521;BME280;50896;46.714;17.322;2023-04-21T10:26:18;100409.63;;;14.61;100.00
64521;BME280;50896;46.714;17.322;2023-04-21T10:29:13;100403.66;;;14.59;100.00
64521;BME280;50896;46.714;17.322;2023-04-21T10:31:52;100402.56;;;14.68;100.00
64521;BME280;50896;46.714;17.322;2023-04-21T10:34:33;100393.94;;;14.73;100.00
64521;BME280;50896;46.714;17.322;2023-04-21T10:37:11;100398.28;;;14.74;100.00
64521;BME280;50896;46.714;17.322;2023-04-21T10:39:50;100379.56;;;14.74;100.00
64521;BME280;50896;46.714;17.322;2023-04-21T10:42:20;100380.25;;;14.82;100.00
64521;BME280;50896;46.714;17.322;2023-04-21T10:47:28;100373.31;;;14.88;100.00
64521;BME280;50896;46.714;17.322;2023-04-21T10:49:56;100373.19;;;14.96;100.00
64521;BME280;50896;46.714;17.322;2023-04-21T10:52:31;100375.06;;;15.02;100.00
64521;BME280;50896;46.714;17.322;2023-04-21T10:55:07;100369.97;;;15.08;63.03
64521;BME280;50896;46.714;17.322;2023-04-21T10:57:36;100363.66;;;15.15;60.91
64521;BME280;50896;46.714;17.322;2023-04-21T11:00:04;100362.22;;;15.19;59.80
64521;BME280;50896;46.714;17.322;2023-04-21T11:02:33;100370.28;;;15.19;59.16
64521;BME280;50896;46.714;17.322;2023-04-21T11:05:05;100367.72;;;15.33;58.61
64521;BME280;50896;46.714;17.322;2023-04-21T11:07:33;100364.41;;;15.31;58.32
64521;BME280;50896;46.714;17.322;2023-04-21T11:10:02;100371.66;;;15.37;58.88
64521;BME280;50896;46.714;17.322;2023-04-21T11:12:31;100369.03;;;15.44;61.53
64521;BME280;50896;46.714;17.322;2023-04-21T11:15:03;100376.16;;;15.65;63.56
64521;BME280;50896;46.714;17.322;2023-04-21T11:17:31;100377.59;;;15.61;62.78
64521;BME280;50896;46.714;17.322;2023-04-21T11:19:57;100368.72;;;15.60;61.94
64521;BME280;50896;46.714;17.322;2023-04-21T11:22:25;100358.69;;;15.69;61.30
64521;BME280;50896;46.714;17.322;2023-04-21T11:24:54;100378.63;;;15.95;60.41
64521;BME280;50896;46.714;17.322;2023-04-21T11:27:21;100369.38;;;15.97;60.58
64521;BME280;50896;46.714;17.322;2023-04-21T11:29:49;100373.50;;;16.00;63.44
64521;BME280;50896;46.714;17.322;2023-04-21T11:32:17;100373.75;;;16.05;64.90
64521;BME280;50896;46.714;17.322;2023-04-21T11:34:44;100378.06;;;15.99;68.09
64521;BME280;50896;46.714;17.322;2023-04-21T11:37:23;100373.47;;;15.93;68.52
64521;BME280;50896;46.714;17.322;2023-04-21T11:39:59;100378.31;;;16.11;68.27
64521;BME280;50896;46.714;17.322;2023-04-21T11:42:27;100375.25;;;16.21;67.94
64521;BME280;50896;46.714;17.322;2023-04-21T11:44:55;100369.31;;;16.26;61.75
64521;BME280;50896;46.714;17.322;2023-04-21T11:47:24;100368.34;;;16.47;64.60
64521;BME280;50896;46.714;17.322;2023-04-21T11:49:56;100371.41;;;16.37;61.89
64521;BME280;50896;46.714;17.322;2023-04-21T11:52:31;100367.28;;;16.41;60.93
64521;BME280;50896;46.714;17.322;2023-04-21T11:57:28;100366.03;;;16.37;60.23
64521;BME280;50896;46.714;17.322;2023-04-21T11:59:59;100367.03;;;16.29;62.06
64521;BME280;50896;46.714;17.322;2023-04-21T12:02:30;100366.81;;;16.31;65.15
64521;BME280;50896;46.714;17.322;2023-04-21T12:05:05;100366.66;;;16.39;64.07
64521;BME280;50896;46.714;17.322;2023-04-21T12:07:34;100362.13;;;16.46;63.64
64521;BME280;50896;46.714;17.322;2023-04-21T12:10:08;100361.22;;;16.19;64.78
64521;BME280;50896;46.714;17.322;2023-04-21T12:12:37;100360.78;;;16.15;63.73
64521;BME280;50896;46.714;17.322;2023-04-21T12:15:09;100362.63;;;16.08;61.90
64521;BME280;50896;46.714;17.322;2023-04-21T12:17:46;100373.50;;;16.00;63.37
64521;BME280;50896;46.714;17.322;2023-04-21T12:20:15;100367.66;;;15.83;64.65
64521;BME280;50896;46.714;17.322;2023-04-21T12:22:43;100359.00;;;15.87;65.13
64521;BME280;50896;46.714;17.322;2023-04-21T12:25:10;100354.69;;;15.93;65.99
64521;BME280;50896;46.714;17.322;2023-04-21T12:27:46;100359.44;;;15.91;66.96
64521;BME280;50896;46.714;17.322;2023-04-21T12:30:14;100352.09;;;16.06;66.83
64521;BME280;50896;46.714;17.322;2023-04-21T12:32:41;100352.28;;;16.05;62.80
64521;BME280;50896;46.714;17.322;2023-04-21T12:35:08;100345.28;;;16.04;62.75
64521;BME280;50896;46.714;17.322;2023-04-21T12:37:35;100350.59;;;15.97;63.44
64521;BME280;50896;46.714;17.322;2023-04-21T12:40:02;100350.59;;;15.97;63.51
64521;BME280;50896;46.714;17.322;2023-04-21T12:42:28;100352.22;;;15.92;62.86
64521;BME280;50896;46.714;17.322;2023-04-21T12:44:55;100339.84;;;15.84;64.62
64521;BME280;50896;46.714;17.322;2023-04-21T12:47:22;100348.47;;;15.86;64.84